Terminal Aerodrome Forecast
Issued by NWS Shreveport, LA

Home | Current Version | Previous Version | Text Only | Print | Product List | Glossary On
Versions: 1 2 3 4 5 6 7 8 9 10 11 12 13
000
FTUS44 KSHV 171100
TAFGGG
TAF
KGGG 171120Z 1712/1812 VRB03KT P6SM SCT250
      TEMPO 1712/1714 3SM BR
     FM171600 17005KT P6SM SCT030 BKN250
     FM172100 18008KT P6SM VCTS BKN040CB
     FM180100 16005KT P6SM BKN150
      TEMPO 1809/1812 4SM BR BKN020=

USA.gov is the U.S. government's official web portal to all federal, state and local government web resources and services.